createdAt,value
2023-04-02T00:00:11.652Z,97980.00
2023-04-02T00:02:49.287Z,97986.00
2023-04-02T00:05:25.451Z,97982.00
2023-04-02T00:07:53.820Z,97991.00
2023-04-02T00:10:46.675Z,97984.00
2023-04-02T00:13:22.850Z,97982.00
2023-04-02T00:15:50.582Z,97981.00
2023-04-02T00:18:20.659Z,97965.00
2023-04-02T00:20:56.402Z,97991.00
2023-04-02T00:23:23.623Z,97991.00
2023-04-02T00:25:50.516Z,97999.00
2023-04-02T00:28:22.682Z,98002.00
2023-04-02T00:30:55.329Z,98002.00
2023-04-02T00:33:24.426Z,98001.00
2023-04-02T00:35:52.607Z,98008.00
2023-04-02T00:38:33.027Z,98015.00
2023-04-02T00:41:05.384Z,98015.00
2023-04-02T00:43:37.107Z,98015.00
2023-04-02T00:46:10.615Z,98010.00
2023-04-02T00:49:03.671Z,98004.00
2023-04-02T00:55:44.019Z,98024.00
2023-04-02T00:58:33.169Z,98026.00
2023-04-02T01:01:00.327Z,98011.00
2023-04-02T01:03:35.365Z,98030.00
2023-04-02T01:06:11.381Z,98037.00
2023-04-02T01:09:20.732Z,98044.00
2023-04-02T01:12:12.827Z,98037.00
2023-04-02T01:15:08.831Z,98048.00
2023-04-02T01:18:19.647Z,98049.00
2023-04-02T01:21:00.217Z,98036.00
2023-04-02T01:23:35.819Z,98039.00
2023-04-02T01:26:11.557Z,98046.00
2023-04-02T01:29:31.887Z,98042.00
2023-04-02T01:32:05.708Z,98039.00
2023-04-02T01:34:32.690Z,98038.00
2023-04-02T01:37:15.678Z,98044.00
2023-04-02T01:40:15.925Z,98054.00
2023-04-02T01:43:15.902Z,98047.00
2023-04-02T01:45:42.818Z,98047.00
2023-04-02T01:48:16.906Z,98040.00
2023-04-02T01:50:44.879Z,98039.00
2023-04-02T01:53:16.553Z,98048.00
2023-04-02T01:55:46.426Z,98049.00
2023-04-02T01:58:14.421Z,98050.00
2023-04-02T02:00:49.830Z,98046.00
2023-04-02T02:03:16.935Z,98048.00
2023-04-02T02:05:43.861Z,98055.00
2023-04-02T02:08:48.368Z,98066.00
2023-04-02T02:11:18.917Z,98075.00
2023-04-02T02:13:56.838Z,98069.00
2023-04-02T02:16:24.008Z,98084.00
2023-04-02T02:18:56.443Z,98094.00
2023-04-02T02:21:43.791Z,98093.00
2023-04-02T02:24:21.094Z,98098.00
2023-04-02T02:26:56.192Z,98105.00
2023-04-02T02:29:23.078Z,98112.00
2023-04-02T02:31:52.984Z,98106.00
2023-04-02T02:34:25.072Z,98105.00
2023-04-02T02:37:06.853Z,98107.00
2023-04-02T02:39:43.032Z,98097.00
2023-04-02T02:42:38.941Z,98099.00
2023-04-02T02:45:10.304Z,98104.00
2023-04-02T02:47:38.102Z,98109.00
2023-04-02T02:50:08.682Z,98106.00
2023-04-02T02:52:36.696Z,98111.00
2023-04-02T02:55:14.647Z,98121.00
2023-04-02T02:57:50.206Z,98113.00
2023-04-02T03:00:17.400Z,98124.00
2023-04-02T03:02:44.495Z,98126.00
2023-04-02T03:05:21.507Z,98132.00
2023-04-02T03:07:53.336Z,98130.00
2023-04-02T03:10:24.159Z,98133.00
2023-04-02T03:13:05.877Z,98118.00
2023-04-02T03:15:34.677Z,98137.00
2023-04-02T03:18:35.664Z,98141.00
2023-04-02T03:21:52.312Z,98151.00
2023-04-02T03:24:36.944Z,98160.00
2023-04-02T03:27:18.261Z,98159.00
2023-04-02T03:30:14.694Z,98167.00
2023-04-02T03:32:42.400Z,98147.00
2023-04-02T03:35:27.625Z,98170.00
2023-04-02T03:38:12.766Z,98176.00
2023-04-02T03:41:00.619Z,98178.00
2023-04-02T03:43:42.573Z,98164.00
2023-04-02T03:46:44.360Z,98174.00
2023-04-02T03:49:55.144Z,98190.00
2023-04-02T03:52:28.842Z,98177.00
2023-04-02T03:54:57.276Z,98185.00
2023-04-02T03:57:32.457Z,98191.00
2023-04-02T04:00:36.811Z,98190.00
2023-04-02T04:03:14.476Z,98203.00
2023-04-02T04:06:26.813Z,98197.00
2023-04-02T04:08:58.269Z,98205.00
2023-04-02T04:11:30.459Z,98216.00
2023-04-02T04:14:20.346Z,98200.00
2023-04-02T04:17:17.463Z,98217.00
2023-04-02T04:19:55.009Z,98216.00
2023-04-02T04:22:28.839Z,98218.00
2023-04-02T04:25:24.041Z,98218.00
2023-04-02T04:28:04.862Z,98222.00
2023-04-02T04:30:50.663Z,98233.00
2023-04-02T04:33:26.358Z,98228.00
2023-04-02T04:35:58.484Z,98225.00
2023-04-02T04:38:33.089Z,98237.00
2023-04-02T04:41:11.648Z,98240.00
2023-04-02T04:43:45.820Z,98244.00
2023-04-02T04:46:38.020Z,98240.00
2023-04-02T04:49:22.588Z,98264.00
2023-04-02T04:51:53.264Z,98264.00
2023-04-02T04:54:20.169Z,98260.00
2023-04-02T04:56:49.980Z,98266.00
2023-04-02T04:59:25.864Z,98269.00
2023-04-02T05:02:16.411Z,98268.00
2023-04-02T05:04:44.551Z,98270.00
2023-04-02T05:07:21.705Z,98281.00
2023-04-02T05:10:40.641Z,98288.00
2023-04-02T05:13:17.614Z,98279.00
2023-04-02T05:15:55.759Z,98272.00
2023-04-02T05:18:32.432Z,98284.00
2023-04-02T05:21:18.324Z,98282.00
2023-04-02T05:24:20.068Z,98294.00
2023-04-02T05:26:47.106Z,98292.00
2023-04-02T05:29:25.027Z,98294.00
2023-04-02T05:32:06.837Z,98305.00
2023-04-02T05:34:38.242Z,98315.00
2023-04-02T05:37:07.054Z,98313.00
2023-04-02T05:39:34.200Z,98306.00
2023-04-02T05:42:05.703Z,98246.00
2023-04-02T05:44:39.260Z,98297.00
2023-04-02T05:47:19.064Z,98314.00
2023-04-02T05:49:53.829Z,98310.00
2023-04-02T05:52:25.727Z,98313.00
2023-04-02T05:55:23.679Z,98321.00
2023-04-02T05:58:13.473Z,98332.00
2023-04-02T06:00:58.228Z,98336.00
2023-04-02T06:03:40.513Z,98330.00
2023-04-02T06:06:16.311Z,98329.00
2023-04-02T06:08:48.225Z,98324.00
2023-04-02T06:11:22.121Z,98316.00
2023-04-02T06:13:49.027Z,98329.00
2023-04-02T06:16:16.031Z,98331.00
2023-04-02T06:18:43.063Z,98336.00
2023-04-02T06:21:12.073Z,98340.00
2023-04-02T06:24:09.659Z,98332.00
2023-04-02T06:26:41.536Z,98337.00
2023-04-02T06:29:28.087Z,98342.00
2023-04-02T06:32:02.350Z,98274.00
2023-04-02T06:34:30.382Z,98270.00
2023-04-02T06:37:00.602Z,98336.00
2023-04-02T06:39:27.722Z,98261.00
2023-04-02T06:42:03.452Z,98311.00
2023-04-02T06:44:35.822Z,98322.00
2023-04-02T06:47:33.532Z,98318.00
2023-04-02T06:50:21.368Z,98278.00
2023-04-02T06:52:53.875Z,98279.00
2023-04-02T06:55:20.791Z,98280.00
2023-04-02T06:57:48.172Z,98268.00
2023-04-02T07:00:36.989Z,98270.00
2023-04-02T07:03:07.631Z,98270.00
2023-04-02T07:05:34.928Z,98272.00
2023-04-02T07:08:02.034Z,98279.00
2023-04-02T07:10:29.004Z,98275.00
2023-04-02T07:12:55.953Z,98279.00
2023-04-02T07:15:22.909Z,98288.00
2023-04-02T07:17:50.211Z,98290.00
2023-04-02T07:20:28.625Z,98288.00
2023-04-02T07:22:55.980Z,98292.00
2023-04-02T07:25:24.168Z,98296.00
2023-04-02T07:27:51.620Z,98294.00
2023-04-02T07:30:18.744Z,98306.00
2023-04-02T07:32:45.791Z,98297.00
2023-04-02T07:35:12.765Z,98299.00
2023-04-02T07:37:39.930Z,98312.00
2023-04-02T07:40:16.846Z,98301.00
2023-04-02T07:42:44.168Z,98292.00
2023-04-02T07:45:11.514Z,98301.00
2023-04-02T07:47:38.568Z,98281.00
2023-04-02T07:50:06.477Z,98286.00
2023-04-02T07:52:33.508Z,98266.00
2023-04-02T07:55:00.563Z,98268.00
2023-04-02T07:57:27.698Z,98271.00
2023-04-02T07:59:54.790Z,98284.00
2023-04-02T08:02:22.041Z,98280.00
2023-04-02T08:04:50.184Z,98282.00
2023-04-02T08:07:18.261Z,98298.00
2023-04-02T08:09:45.267Z,98295.00
2023-04-02T08:12:15.416Z,98301.00
2023-04-02T08:14:42.348Z,98303.00
2023-04-02T08:17:09.424Z,98296.00
2023-04-02T08:19:47.723Z,98300.00
2023-04-02T08:22:18.877Z,98312.00
2023-04-02T08:24:45.843Z,98310.00
2023-04-02T08:27:14.408Z,98320.00
2023-04-02T08:29:41.385Z,98296.00
2023-04-02T08:32:10.468Z,98307.00
2023-04-02T08:34:37.376Z,98312.00
2023-04-02T08:37:04.279Z,98305.00
2023-04-02T08:39:31.216Z,98316.00
2023-04-02T08:42:26.638Z,98316.00
2023-04-02T08:45:25.024Z,98322.00
2023-04-02T08:48:04.939Z,98324.00
2023-04-02T08:50:32.823Z,98325.00
2023-04-02T08:53:00.715Z,98322.00
2023-04-02T08:55:30.301Z,98320.00
2023-04-02T08:58:34.427Z,98320.00
2023-04-02T09:01:02.261Z,98329.00
2023-04-02T09:03:40.632Z,98330.00
2023-04-02T09:06:09.168Z,98333.00
2023-04-02T09:08:36.293Z,98319.00
2023-04-02T09:11:48.368Z,98328.00
2023-04-02T09:14:42.960Z,98342.00
2023-04-02T09:17:20.238Z,98343.00
2023-04-02T09:20:20.738Z,98355.00
2023-04-02T09:22:49.397Z,98343.00
2023-04-02T09:25:23.133Z,98358.00
2023-04-02T09:27:51.287Z,98352.00
2023-04-02T09:30:33.106Z,98357.00
2023-04-02T09:33:04.613Z,98367.00
2023-04-02T09:35:32.542Z,98368.00
2023-04-02T09:38:29.519Z,98376.00
2023-04-02T09:41:04.077Z,98383.00
2023-04-02T09:43:35.106Z,98389.00
2023-04-02T09:46:24.372Z,98412.00
2023-04-02T09:48:54.497Z,98404.00
2023-04-02T09:51:23.298Z,98429.00
2023-04-02T09:54:12.572Z,98439.00
2023-04-02T09:56:40.608Z,98449.00
2023-04-02T09:59:15.390Z,98469.00
2023-04-02T10:01:59.540Z,98474.00
2023-04-02T10:04:43.373Z,98475.00
2023-04-02T10:07:49.446Z,98483.00
2023-04-02T10:10:32.669Z,98492.00
2023-04-02T10:13:30.082Z,98506.00
2023-04-02T10:16:05.619Z,98512.00
2023-04-02T10:18:49.167Z,98517.00
2023-04-02T10:21:25.055Z,98519.00
2023-04-02T10:23:52.098Z,98515.00
2023-04-02T10:26:59.507Z,98525.00
2023-04-02T10:30:09.465Z,98516.00
2023-04-02T10:32:55.781Z,98520.00
2023-04-02T10:36:11.731Z,98515.00
2023-04-02T10:39:23.657Z,98517.00
2023-04-02T10:42:06.840Z,98507.00
2023-04-02T10:44:57.550Z,98499.00
2023-04-02T10:47:42.590Z,98508.00
2023-04-02T10:50:36.591Z,98511.00
2023-04-02T10:53:17.896Z,98499.00
2023-04-02T10:55:56.941Z,98492.00
2023-04-02T10:58:26.221Z,98483.00
2023-04-02T11:01:09.681Z,98484.00
2023-04-02T11:03:49.093Z,98493.00
2023-04-02T11:06:37.377Z,98502.00
2023-04-02T11:09:06.281Z,98504.00
2023-04-02T11:11:44.216Z,98501.00
2023-04-02T11:14:17.088Z,98497.00
2023-04-02T11:16:44.937Z,98494.00
2023-04-02T11:19:15.222Z,98492.00
2023-04-02T11:22:13.382Z,98482.00
2023-04-02T11:24:46.669Z,98495.00
2023-04-02T11:27:26.558Z,98488.00
2023-04-02T11:30:17.677Z,98488.00
2023-04-02T11:32:48.660Z,98484.00
2023-04-02T11:35:30.583Z,98482.00
2023-04-02T11:38:18.553Z,98477.00
2023-04-02T11:41:06.601Z,98463.00
2023-04-02T11:43:33.574Z,98479.00
2023-04-02T11:46:04.878Z,98455.00
2023-04-02T11:48:37.859Z,98468.00
2023-04-02T11:51:50.877Z,98460.00
2023-04-02T11:54:28.222Z,98440.00
2023-04-02T11:57:01.850Z,98448.00
2023-04-02T11:59:59.949Z,98453.00
2023-04-02T12:02:30.086Z,98454.00
2023-04-02T12:05:23.470Z,98450.00
2023-04-02T12:08:19.554Z,98447.00
2023-04-02T12:10:59.974Z,98433.00
2023-04-02T12:13:42.201Z,98447.00
2023-04-02T12:16:12.366Z,98453.00
2023-04-02T12:18:47.716Z,98450.00
2023-04-02T12:21:19.165Z,98461.00
2023-04-02T12:23:47.451Z,98444.00
2023-04-02T12:26:37.881Z,98459.00
2023-04-02T12:29:27.733Z,98452.00
2023-04-02T12:31:56.171Z,98442.00
2023-04-02T12:34:25.459Z,98444.00
2023-04-02T12:36:55.818Z,98456.00
2023-04-02T12:39:23.882Z,98457.00
2023-04-02T12:41:51.603Z,98461.00
2023-04-02T12:44:21.280Z,98466.00
2023-04-02T12:46:48.785Z,98445.00
2023-04-02T12:49:37.452Z,98466.00
2023-04-02T12:52:21.260Z,98463.00
2023-04-02T12:54:57.023Z,98456.00
2023-04-02T12:57:26.771Z,98460.00
2023-04-02T12:59:58.437Z,98474.00
2023-04-02T13:02:30.074Z,98465.00
2023-04-02T13:05:00.695Z,98459.00
2023-04-02T13:07:32.230Z,98449.00
2023-04-02T13:10:25.776Z,98447.00
2023-04-02T13:13:02.342Z,98443.00
2023-04-02T13:15:31.814Z,98427.00
2023-04-02T13:18:21.641Z,98428.00
2023-04-02T13:21:02.032Z,98432.00
2023-04-02T13:23:31.913Z,98434.00
2023-04-02T13:26:00.303Z,98434.00
2023-04-02T13:28:27.939Z,98427.00
2023-04-02T13:30:55.023Z,98430.00
2023-04-02T13:33:22.062Z,98448.00
2023-04-02T13:35:49.035Z,98436.00
2023-04-02T13:38:16.179Z,98446.00
2023-04-02T13:40:43.156Z,98448.00
2023-04-02T13:43:16.890Z,98439.00
2023-04-02T13:45:43.912Z,98436.00
2023-04-02T13:48:14.541Z,98435.00
2023-04-02T13:50:41.686Z,98431.00
2023-04-02T13:53:13.377Z,98426.00
2023-04-02T13:55:41.673Z,98432.00
2023-04-02T13:58:08.838Z,98422.00
2023-04-02T14:00:36.767Z,98413.00
2023-04-02T14:03:18.010Z,98426.00
2023-04-02T14:06:44.457Z,98427.00
2023-04-02T14:09:32.622Z,98426.00
2023-04-02T14:12:08.610Z,98435.00
2023-04-02T14:15:08.342Z,98431.00
2023-04-02T14:17:47.281Z,98424.00
2023-04-02T14:20:42.116Z,98426.00
2023-04-02T14:23:37.627Z,98434.00
2023-04-02T14:26:10.918Z,98425.00
2023-04-02T14:29:04.211Z,98411.00
2023-04-02T14:31:36.607Z,98412.00
2023-04-02T14:34:47.077Z,98422.00
2023-04-02T14:37:49.191Z,98423.00
2023-04-02T14:40:29.818Z,98417.00
2023-04-02T14:43:17.108Z,98420.00
2023-04-02T14:45:56.906Z,98430.00
2023-04-02T14:48:54.090Z,98423.00
2023-04-02T14:51:36.031Z,98442.00
2023-04-02T14:54:13.356Z,98428.00
2023-04-02T14:56:59.744Z,98433.00
2023-04-02T14:59:39.362Z,98433.00
2023-04-02T15:02:42.762Z,98426.00
2023-04-02T15:05:19.472Z,98415.00
2023-04-02T15:08:03.527Z,98411.00
2023-04-02T15:10:40.160Z,98421.00
2023-04-02T15:13:12.772Z,98413.00
2023-04-02T15:15:48.577Z,98416.00
2023-04-02T15:18:17.114Z,98421.00
2023-04-02T15:21:20.737Z,98416.00
2023-04-02T15:24:20.877Z,98403.00
2023-04-02T15:27:25.216Z,98420.00
2023-04-02T15:30:13.322Z,98405.00
2023-04-02T15:32:41.122Z,98421.00
2023-04-02T15:35:26.857Z,98430.00
2023-04-02T15:38:18.096Z,98422.00
2023-04-02T15:43:54.941Z,98404.00
2023-04-02T15:46:27.319Z,98405.00
2023-04-02T15:49:15.531Z,98408.00
2023-04-02T15:52:26.029Z,98422.00
2023-04-02T15:55:40.193Z,98427.00
2023-04-02T15:58:35.696Z,98427.00
2023-04-02T16:01:53.563Z,98440.00
2023-04-02T16:05:09.182Z,98428.00
2023-04-02T16:07:58.258Z,98431.00
2023-04-02T16:10:42.573Z,98415.00
2023-04-02T16:13:30.336Z,98422.00
2023-04-02T16:16:22.024Z,98434.00
2023-04-02T16:19:37.489Z,98408.00
2023-04-02T16:22:28.180Z,98394.00
2023-04-02T16:25:06.467Z,98395.00
2023-04-02T16:27:41.705Z,98404.00
2023-04-02T16:30:26.581Z,98407.00
2023-04-02T16:33:14.780Z,98397.00
2023-04-02T16:35:50.507Z,98403.00
2023-04-02T16:38:59.920Z,98411.00
2023-04-02T16:42:06.578Z,98430.00
2023-04-02T16:45:19.291Z,98446.00
2023-04-02T16:48:00.650Z,98458.00
2023-04-02T16:51:06.193Z,98489.00
2023-04-02T16:54:02.749Z,98516.00
2023-04-02T16:57:00.393Z,98520.00
2023-04-02T16:59:57.646Z,98537.00
2023-04-02T17:03:00.171Z,98524.00
2023-04-02T17:06:02.574Z,98543.00
2023-04-02T17:09:17.206Z,98543.00
2023-04-02T17:11:50.562Z,98541.00
2023-04-02T17:14:48.206Z,98545.00
2023-04-02T17:17:15.266Z,98526.00
2023-04-02T17:19:43.401Z,98544.00
2023-04-02T17:22:17.644Z,98538.00
2023-04-02T17:25:01.616Z,98547.00
2023-04-02T17:27:40.141Z,98547.00
2023-04-02T17:30:18.197Z,98562.00
2023-04-02T17:32:45.217Z,98547.00
2023-04-02T17:35:36.028Z,98562.00
2023-04-02T17:38:19.107Z,98554.00
2023-04-02T17:40:55.869Z,98550.00
2023-04-02T17:43:44.405Z,98560.00
2023-04-02T17:46:37.385Z,98568.00
2023-04-02T17:49:39.701Z,98571.00
2023-04-02T17:52:28.280Z,98567.00
2023-04-02T17:55:11.479Z,98578.00
2023-04-02T17:57:58.705Z,98573.00
2023-04-02T18:00:41.637Z,98573.00
2023-04-02T18:03:28.653Z,98584.00
2023-04-02T18:06:38.083Z,98587.00
2023-04-02T18:09:51.993Z,98589.00
2023-04-02T18:12:27.919Z,98587.00
2023-04-02T18:15:30.245Z,98604.00
2023-04-02T18:18:08.292Z,98608.00
2023-04-02T18:20:43.338Z,98600.00
2023-04-02T18:23:21.957Z,98609.00
2023-04-02T18:26:15.492Z,98610.00
2023-04-02T18:29:13.934Z,98605.00
2023-04-02T18:31:59.598Z,98621.00
2023-04-02T18:34:55.196Z,98616.00
2023-04-02T18:37:47.222Z,98626.00
2023-04-02T18:40:55.447Z,98637.00
2023-04-02T18:43:58.729Z,98617.00
2023-04-02T18:47:21.039Z,98641.00
2023-04-02T18:49:54.245Z,98641.00
2023-04-02T18:52:21.203Z,98637.00
2023-04-02T18:55:30.416Z,98663.00
2023-04-02T18:58:15.176Z,98658.00
2023-04-02T19:00:43.477Z,98657.00
2023-04-02T19:03:27.418Z,98657.00
2023-04-02T19:06:04.745Z,98666.00
2023-04-02T19:08:40.893Z,98662.00
2023-04-02T19:11:22.542Z,98662.00
2023-04-02T19:13:49.582Z,98678.00
2023-04-02T19:16:56.250Z,98689.00
2023-04-02T19:19:28.917Z,98687.00
2023-04-02T19:22:12.747Z,98683.00
2023-04-02T19:24:42.463Z,98690.00
2023-04-02T19:27:33.838Z,98694.00
2023-04-02T19:30:36.500Z,98705.00
2023-04-02T19:33:31.214Z,98708.00
2023-04-02T19:36:15.805Z,98702.00
2023-04-02T19:39:24.818Z,98710.00
2023-04-02T19:42:01.273Z,98715.00
2023-04-02T19:44:28.175Z,98708.00
2023-04-02T19:46:55.193Z,98718.00
2023-04-02T19:49:29.924Z,98715.00
2023-04-02T19:51:56.902Z,98712.00
2023-04-02T19:54:23.983Z,98710.00
2023-04-02T19:56:51.057Z,98724.00
2023-04-02T19:59:18.777Z,98727.00
2023-04-02T20:01:46.686Z,98724.00
2023-04-02T20:04:14.303Z,98732.00
2023-04-02T20:06:41.364Z,98743.00
2023-04-02T20:09:08.384Z,98743.00
2023-04-02T20:11:36.829Z,98742.00
2023-04-02T20:14:04.000Z,98741.00
2023-04-02T20:16:30.978Z,98753.00
2023-04-02T20:18:58.147Z,98761.00
2023-04-02T20:21:25.170Z,98757.00
2023-04-02T20:23:55.536Z,98763.00
2023-04-02T20:26:22.495Z,98760.00
2023-04-02T20:28:49.472Z,98768.00
2023-04-02T20:31:18.150Z,98766.00
2023-04-02T20:33:45.281Z,98779.00
2023-04-02T20:36:14.950Z,98778.00
2023-04-02T20:38:42.039Z,98780.00
2023-04-02T20:41:09.251Z,98773.00
2023-04-02T20:43:36.769Z,98771.00
2023-04-02T20:46:05.135Z,98777.00
2023-04-02T20:48:32.369Z,98756.00
2023-04-02T20:51:00.459Z,98778.00
2023-04-02T20:53:29.848Z,98782.00
2023-04-02T20:56:13.506Z,98778.00
2023-04-02T20:58:40.733Z,98783.00
2023-04-02T21:01:16.533Z,98801.00
2023-04-02T21:03:43.538Z,98787.00
2023-04-02T21:06:19.006Z,98801.00
2023-04-02T21:08:45.994Z,98798.00
2023-04-02T21:11:13.267Z,98787.00
2023-04-02T21:13:40.434Z,98791.00
2023-04-02T21:16:20.741Z,98803.00
2023-04-02T21:18:52.250Z,98818.00
2023-04-02T21:21:19.321Z,98800.00
2023-04-02T21:23:46.393Z,98805.00
2023-04-02T21:26:15.759Z,98800.00
2023-04-02T21:28:43.600Z,98803.00
2023-04-02T21:31:16.242Z,98810.00
2023-04-02T21:33:48.482Z,98807.00
2023-04-02T21:36:23.155Z,98807.00
2023-04-02T21:38:52.815Z,98813.00
2023-04-02T21:41:22.358Z,98803.00
2023-04-02T21:43:49.609Z,98802.00
2023-04-02T21:46:17.900Z,98806.00
2023-04-02T21:48:45.326Z,98809.00
2023-04-02T21:51:14.007Z,98810.00
2023-04-02T21:53:41.087Z,98803.00
2023-04-02T21:56:14.912Z,98801.00
2023-04-02T21:58:41.920Z,98814.00
2023-04-02T22:01:14.045Z,98817.00
2023-04-02T22:03:47.442Z,98814.00
2023-04-02T22:06:19.686Z,98815.00
2023-04-02T22:08:47.568Z,98817.00
2023-04-02T22:11:17.627Z,98818.00
2023-04-02T22:13:45.742Z,98817.00
2023-04-02T22:16:20.402Z,98816.00
2023-04-02T22:18:47.878Z,98811.00
2023-04-02T22:21:15.067Z,98823.00
2023-04-02T22:23:42.272Z,98821.00
2023-04-02T22:26:14.769Z,98818.00
2023-04-02T22:28:41.888Z,98812.00
2023-04-02T22:31:21.378Z,98816.00
2023-04-02T22:33:48.580Z,98821.00
2023-04-02T22:36:16.220Z,98820.00
2023-04-02T22:38:43.300Z,98810.00
2023-04-02T22:41:11.732Z,98828.00
2023-04-02T22:43:39.178Z,98811.00
2023-04-02T22:46:07.756Z,98810.00
2023-04-02T22:48:35.113Z,98806.00
2023-04-02T22:51:02.443Z,98799.00
2023-04-02T22:53:29.501Z,98808.00
2023-04-02T22:56:01.872Z,98804.00
2023-04-02T22:58:28.770Z,98817.00
2023-04-02T23:00:55.748Z,98817.00
2023-04-02T23:03:22.722Z,98813.00
2023-04-02T23:06:00.865Z,98797.00
2023-04-02T23:08:27.796Z,98805.00
2023-04-02T23:11:06.706Z,98806.00
2023-04-02T23:13:33.932Z,98807.00
2023-04-02T23:16:02.323Z,98794.00
2023-04-02T23:18:32.060Z,98796.00
2023-04-02T23:20:59.200Z,98804.00
2023-04-02T23:23:26.491Z,98792.00
2023-04-02T23:26:11.479Z,98797.00
2023-04-02T23:28:38.959Z,98800.00
2023-04-02T23:31:08.640Z,98809.00
2023-04-02T23:33:35.693Z,98803.00
2023-04-02T23:36:31.209Z,98801.00
2023-04-02T23:39:00.834Z,98788.00
2023-04-02T23:41:28.275Z,98800.00
2023-04-02T23:43:58.432Z,98796.00
2023-04-02T23:46:25.868Z,98795.00
2023-04-02T23:48:53.364Z,98801.00
2023-04-02T23:51:20.435Z,98779.00
2023-04-02T23:53:48.169Z,98807.00
2023-04-02T23:56:15.161Z,98787.00
2023-04-02T23:58:42.051Z,98772.00
